createdAt,value
2022-07-30T00:06:15.849Z,1.50
2022-07-30T00:16:19.380Z,1.40
2022-07-30T00:26:26.099Z,1.60
2022-07-30T00:36:34.580Z,1.30
2022-07-30T00:46:40.846Z,1.40
2022-07-30T00:56:44.253Z,1.60
2022-07-30T01:06:49.713Z,1.70
2022-07-30T01:16:53.706Z,1.50
2022-07-30T01:26:58.142Z,1.70
2022-07-30T01:37:04.229Z,1.80
2022-07-30T01:47:12.965Z,1.80
2022-07-30T01:57:27.372Z,1.80
2022-07-30T02:08:07.649Z,1.50
2022-07-30T02:18:23.050Z,1.70
2022-07-30T02:29:07.284Z,1.70
2022-07-30T02:39:15.239Z,2.20
2022-07-30T02:49:21.335Z,1.70
2022-07-30T02:59:29.982Z,1.70
2022-07-30T03:09:51.011Z,1.60
2022-07-30T03:20:26.324Z,1.90
2022-07-30T03:30:38.905Z,1.90
2022-07-30T03:40:43.370Z,1.60
2022-07-30T03:51:04.371Z,1.80
2022-07-30T04:01:32.740Z,1.70
2022-07-30T04:11:50.055Z,1.80
2022-07-30T04:22:02.565Z,1.90
2022-07-30T04:32:17.475Z,1.90
2022-07-30T04:42:40.515Z,2.00
2022-07-30T04:52:47.478Z,1.90
2022-07-30T05:02:57.611Z,2.00
2022-07-30T05:23:20.893Z,1.90
2022-07-30T05:33:40.857Z,2.00
2022-07-30T05:44:12.018Z,2.00
2022-07-30T05:54:20.834Z,2.20
2022-07-30T06:04:48.482Z,2.40
2022-07-30T06:14:52.405Z,2.20
2022-07-30T06:25:00.346Z,2.30
2022-07-30T06:35:14.697Z,2.40
2022-07-30T06:45:46.733Z,2.30
2022-07-30T06:56:38.289Z,2.70
2022-07-30T07:06:43.010Z,2.40
2022-07-30T07:16:49.817Z,2.20
2022-07-30T07:51:47.401Z,2.30
2022-07-30T08:02:00.706Z,2.50
2022-07-30T08:23:19.833Z,2.70
2022-07-30T08:43:38.268Z,2.60
2022-07-30T08:54:09.068Z,2.50
2022-07-30T09:04:24.827Z,3.10
2022-07-30T09:14:35.014Z,2.80
2022-07-30T09:24:48.315Z,3.00
2022-07-30T09:46:56.388Z,2.60
2022-07-30T09:57:26.047Z,2.90
2022-07-30T10:07:42.945Z,2.70
2022-07-30T10:45:29.825Z,2.90
2022-07-30T11:20:07.457Z,3.30
2022-07-30T11:42:20.030Z,3.20
2022-07-30T11:52:58.727Z,3.20
2022-07-30T12:03:20.991Z,3.20
2022-07-30T12:13:24.409Z,3.70
2022-07-30T12:34:27.338Z,4.40
2022-07-30T12:44:58.099Z,4.20
2022-07-30T12:55:12.935Z,3.30
2022-07-30T13:06:35.162Z,3.40
2022-07-30T13:18:19.232Z,3.40
2022-07-30T13:28:33.762Z,3.70
2022-07-30T13:38:56.045Z,4.00
2022-07-30T13:49:17.389Z,8.80
2022-07-30T14:10:51.388Z,3.70
2022-07-30T14:21:29.382Z,4.00
2022-07-30T14:31:40.290Z,4.00
2022-07-30T14:42:30.733Z,3.80
2022-07-30T14:52:38.949Z,3.20
2022-07-30T15:03:32.915Z,3.30
2022-07-30T15:13:49.644Z,3.10
2022-07-30T15:24:07.545Z,3.00
2022-07-30T15:56:09.612Z,3.10
2022-07-30T16:06:39.005Z,3.00
2022-07-30T16:16:42.893Z,2.50
2022-07-30T16:26:54.000Z,2.80
2022-07-30T16:37:00.198Z,2.50
2022-07-30T16:47:10.712Z,3.50
2022-07-30T16:57:17.018Z,3.10
2022-07-30T17:07:20.272Z,2.60
2022-07-30T17:17:23.475Z,2.60
2022-07-30T17:27:29.266Z,3.50
2022-07-30T17:37:34.919Z,4.60
2022-07-30T17:47:48.814Z,4.60
2022-07-30T18:08:03.072Z,4.10
2022-07-30T18:18:20.233Z,4.10
2022-07-30T18:28:23.863Z,4.40
2022-07-30T18:38:27.664Z,4.00
2022-07-30T18:48:31.008Z,3.40
2022-07-30T18:58:34.314Z,3.60
2022-07-30T19:08:37.589Z,3.60
2022-07-30T19:18:43.485Z,3.20
2022-07-30T19:28:46.777Z,3.00
2022-07-30T19:38:50.424Z,3.30
2022-07-30T19:48:53.767Z,6.50
2022-07-30T20:09:18.831Z,4.60
2022-07-30T20:19:47.424Z,3.50
2022-07-30T20:29:51.369Z,3.70
2022-07-30T20:39:56.090Z,5.30
2022-07-30T20:50:10.102Z,3.10
2022-07-30T21:00:15.863Z,3.30
2022-07-30T21:10:23.527Z,9.90
2022-07-30T21:20:28.304Z,6.80
2022-07-30T21:30:57.293Z,4.80
2022-07-30T21:41:01.800Z,4.70
2022-07-30T21:51:08.080Z,4.00
2022-07-30T22:01:22.596Z,3.70
2022-07-30T22:11:42.837Z,3.40
2022-07-30T22:31:55.527Z,3.80
2022-07-30T22:41:58.787Z,3.60
2022-07-30T22:52:27.528Z,3.70
2022-07-30T23:02:29.164Z,3.40
2022-07-30T23:12:35.806Z,3.60
2022-07-30T23:22:39.396Z,3.40
2022-07-30T23:32:42.603Z,3.80
2022-07-30T23:42:47.438Z,3.50
2022-07-30T23:52:50.710Z,3.60
